Time;durP1;ratioP1;P1;durP2;ratioP2;P2;SDS_P1;SDS_P2;PMS_P1;PMS_P2;Temp;Humidity;BMP_temperature;BMP_pressure;BME280_temperature;BME280_humidity;BME280_pressure;Samples;Min_cycle;Max_cycle;Signal;HPM_P1;HPM_P2
2022/03/29 00:00:18;;;;;;;18.77;15.00;;;12.60;1.00;12.90;100362.00;;;;4996247;28;20537;-79
2022/03/29 00:02:47;;;;;;;22.57;17.00;;;12.60;1.00;12.90;100363.00;;;;4995526;28;20466;-79
2022/03/29 00:05:15;;;;;;;22.00;15.60;;;12.60;1.00;13.00;100374.00;;;;5012180;28;20536;-81
2022/03/29 00:07:45;;;;;;;21.97;16.53;;;12.70;1.00;13.00;100364.00;;;;4997806;28;20475;-80
2022/03/29 00:10:13;;;;;;;21.83;15.80;;;12.70;1.00;13.00;100367.00;;;;4994077;28;20890;-79
2022/03/29 00:12:42;;;;;;;23.63;17.90;;;12.80;1.00;13.00;100344.00;;;;4994899;28;20458;-80
2022/03/29 00:15:12;;;;;;;25.80;18.17;;;12.80;1.00;13.10;100356.00;;;;4998505;28;20487;-78
2022/03/29 00:17:40;;;;;;;19.97;17.37;;;12.90;1.00;13.20;100357.00;;;;4991319;28;20462;-80
2022/03/29 00:20:11;;;;;;;26.50;18.77;;;12.90;1.00;13.10;100351.00;;;;4999323;28;20474;-79
2022/03/29 00:22:39;;;;;;;25.63;19.43;;;12.90;1.00;13.20;100350.00;;;;4996154;28;20464;-79
2022/03/29 00:25:11;;;;;;;24.87;20.33;;;12.90;1.00;13.20;100343.00;;;;4991217;28;20906;-79
2022/03/29 00:27:40;;;;;;;23.73;19.03;;;13.00;1.00;13.30;100346.00;;;;4992275;28;20482;-79
2022/03/29 00:30:12;;;;;;;24.73;17.90;;;12.90;1.00;13.20;100354.00;;;;4995629;28;20469;-79
2022/03/29 00:32:40;;;;;;;29.57;19.10;;;13.00;1.00;13.30;100340.00;;;;4994017;28;20491;-79
2022/03/29 00:35:10;;;;;;;26.80;21.13;;;13.20;1.00;13.20;100333.00;;;;4996835;28;20497;-80
2022/03/29 00:37:41;;;;;;;24.53;19.97;;;13.00;1.00;13.10;100345.00;;;;4993509;28;20525;-78
2022/03/29 00:40:13;;;;;;;31.73;21.47;;;12.90;1.00;13.20;100347.00;;;;4978388;28;20466;-78
2022/03/29 00:42:42;;;;;;;25.27;21.00;;;12.90;1.00;13.10;100338.00;;;;4994193;28;20496;-79
2022/03/29 00:45:12;;;;;;;28.43;20.90;;;12.90;1.00;13.10;100324.00;;;;4999370;28;20478;-78
2022/03/29 00:47:41;;;;;;;26.40;20.80;;;12.90;1.00;13.10;100323.00;;;;4993759;28;20459;-79
2022/03/29 00:50:10;;;;;;;28.50;20.50;;;12.90;1.00;13.00;100317.00;;;;4996282;28;20943;-79
2022/03/29 00:52:40;;;;;;;28.90;21.17;;;12.90;1.00;13.00;100335.00;;;;4991925;28;20646;-79
2022/03/29 00:55:15;;;;;;;29.07;21.37;;;12.80;1.00;13.00;100326.00;;;;4991330;28;20486;-79
2022/03/29 00:57:46;;;;;;;28.07;21.03;;;12.80;1.00;13.00;100313.00;;;;4994448;28;20450;-79
2022/03/29 01:00:16;;;;;;;31.03;22.80;;;12.70;1.00;13.00;100316.00;;;;4987469;28;20455;-79
2022/03/29 01:02:45;;;;;;;29.50;20.40;;;12.80;1.00;12.90;100306.00;;;;4987104;28;20462;-79
2022/03/29 01:05:13;;;;;;;28.13;20.50;;;12.70;1.00;12.90;100302.00;;;;4990109;28;20948;-79
2022/03/29 01:07:43;;;;;;;32.60;24.00;;;12.70;1.00;12.80;100301.00;;;;4992970;28;20462;-79
2022/03/29 01:10:11;;;;;;;29.17;21.23;;;12.70;1.00;12.80;100308.00;;;;4993634;28;20451;-79
2022/03/29 01:12:41;;;;;;;30.20;22.13;;;12.60;1.00;12.90;100311.00;;;;4989738;28;20452;-79
2022/03/29 01:15:11;;;;;;;33.20;22.20;;;12.60;1.00;12.90;100297.00;;;;5001817;28;20482;-79
2022/03/29 01:17:38;;;;;;;29.20;21.93;;;12.60;1.00;12.80;100294.00;;;;5008260;28;20502;-79
2022/03/29 01:20:14;;;;;;;28.90;22.70;;;12.60;1.00;12.80;100299.00;;;;5010626;28;20485;-79
2022/03/29 01:22:45;;;;;;;33.63;22.33;;;12.60;1.00;12.80;100291.00;;;;5007791;28;20461;-79
2022/03/29 01:25:17;;;;;;;30.47;21.50;;;12.60;1.00;12.70;100293.00;;;;5000812;28;20482;-78
2022/03/29 01:27:47;;;;;;;28.10;22.63;;;12.50;1.00;12.70;100281.00;;;;4997562;28;20462;-79
2022/03/29 01:30:17;;;;;;;30.20;23.30;;;12.50;1.00;12.70;100295.00;;;;4999303;28;20509;-80
2022/03/29 01:32:47;;;;;;;31.40;23.40;;;12.50;1.00;12.70;100265.00;;;;5007363;28;20458;-79
2022/03/29 01:35:18;;;;;;;34.13;24.07;;;12.50;1.00;12.60;100281.00;;;;5014850;28;20465;-79
2022/03/29 01:37:48;;;;;;;30.40;23.27;;;12.40;1.00;12.60;100287.00;;;;5019166;28;20483;-79
2022/03/29 01:40:19;;;;;;;35.10;24.70;;;12.40;1.00;12.60;100270.00;;;;5018757;28;20457;-78
2022/03/29 01:42:50;;;;;;;32.43;23.23;;;12.30;1.00;12.60;100265.00;;;;5008357;28;21255;-79
2022/03/29 01:45:20;;;;;;;32.20;24.77;;;12.40;1.00;12.50;100258.00;;;;4992157;28;20490;-79
2022/03/29 01:47:49;;;;;;;34.80;24.60;;;12.30;1.00;12.50;100268.00;;;;4993695;28;20456;-79
2022/03/29 01:50:17;;;;;;;31.53;23.53;;;12.30;1.00;12.50;100253.00;;;;4987712;28;20466;-79
2022/03/29 01:52:48;;;;;;;30.87;22.60;;;12.30;1.00;12.50;100276.00;;;;4987900;28;20493;-79
2022/03/29 01:55:18;;;;;;;30.43;23.10;;;12.30;1.00;12.40;100250.00;;;;4992340;28;20484;-79
2022/03/29 01:57:48;;;;;;;34.23;25.13;;;12.20;1.00;12.30;100259.00;;;;4991669;28;20473;-79
2022/03/29 02:00:34;;;;;;;30.57;23.70;;;12.20;1.00;12.40;100263.00;;;;4989350;28;20473;-79
2022/03/29 02:03:06;;;;;;;36.30;24.90;;;12.10;1.00;12.40;100251.00;;;;4991782;28;20442;-79
2022/03/29 02:05:35;;;;;;;28.73;23.93;;;12.10;1.00;12.40;100253.00;;;;4994741;28;21080;-79
2022/03/29 02:08:05;;;;;;;31.50;23.23;;;12.10;1.00;12.30;100245.00;;;;4997113;28;20962;-79
2022/03/29 02:10:34;;;;;;;30.60;24.73;;;12.10;1.00;12.40;100256.00;;;;4990889;28;20545;-79
2022/03/29 02:13:02;;;;;;;34.33;25.47;;;12.10;1.00;12.40;100255.00;;;;4992158;28;20462;-79
2022/03/29 02:15:31;;;;;;;32.50;25.17;;;12.20;1.00;12.40;100255.00;;;;4994183;28;20485;-79
2022/03/29 02:18:00;;;;;;;33.60;24.87;;;12.20;1.00;12.40;100245.00;;;;4993247;28;20482;-79
2022/03/29 02:20:28;;;;;;;32.43;23.90;;;12.20;1.00;12.40;100217.00;;;;4993631;28;20458;-79
2022/03/29 02:23:01;;;;;;;33.77;26.47;;;12.20;1.00;12.40;100250.00;;;;4990263;28;21117;-79
2022/03/29 02:25:31;;;;;;;35.50;25.40;;;12.30;1.00;12.30;100243.00;;;;4995194;28;20478;-79
2022/03/29 02:28:00;;;;;;;34.40;25.80;;;12.10;1.00;12.30;100236.00;;;;4992849;28;20950;-79
2022/03/29 02:30:29;;;;;;;32.73;24.60;;;12.10;1.00;12.30;100241.00;;;;4993281;28;20466;-80
2022/03/29 02:32:57;;;;;;;31.40;23.70;;;12.10;1.00;12.30;100250.00;;;;4992162;28;20505;-80
2022/03/29 02:35:25;;;;;;;33.90;26.17;;;12.00;1.00;12.30;100242.00;;;;4990107;28;20486;-79
2022/03/29 02:37:53;;;;;;;32.53;24.07;;;12.00;1.00;12.20;100246.00;;;;4997045;28;20549;-79
2022/03/29 02:40:22;;;;;;;47.17;25.63;;;12.00;1.00;12.10;100222.00;;;;4996723;28;20461;-79
2022/03/29 02:42:56;;;;;;;32.43;25.10;;;12.00;1.00;12.10;100232.00;;;;4989951;28;20455;-79
2022/03/29 02:45:26;;;;;;;33.13;25.83;;;11.90;1.00;12.10;100242.00;;;;4992481;28;21007;-80
2022/03/29 02:47:58;;;;;;;32.43;25.07;;;11.90;1.00;12.10;100230.00;;;;4992841;28;20459;-79
2022/03/29 02:50:27;;;;;;;33.13;25.87;;;11.90;1.00;12.10;100229.00;;;;4989836;28;20450;-79
2022/03/29 02:52:57;;;;;;;35.00;25.30;;;11.90;1.00;12.00;100223.00;;;;4990593;28;20819;-79
2022/03/29 02:55:28;;;;;;;35.93;26.20;;;11.80;1.00;12.10;100208.00;;;;4993275;28;20485;-78
2022/03/29 02:57:58;;;;;;;38.87;25.77;;;11.80;1.00;12.10;100222.00;;;;4991080;28;21063;-77
2022/03/29 03:00:28;;;;;;;35.77;26.20;;;11.90;1.00;12.00;100211.00;;;;4987585;28;20447;-77
2022/03/29 03:02:57;;;;;;;35.43;25.67;;;11.80;1.00;12.00;100206.00;;;;4992851;28;20463;-77
2022/03/29 03:05:25;;;;;;;33.83;26.00;;;11.80;1.00;12.00;100217.00;;;;4994293;28;20991;-79
2022/03/29 03:07:54;;;;;;;33.90;26.50;;;11.80;1.00;12.00;100225.00;;;;4993673;28;20461;-78
2022/03/29 03:10:25;;;;;;;35.57;25.97;;;11.80;1.00;12.00;100220.00;;;;4996063;28;20468;-79
2022/03/29 03:12:53;;;;;;;30.37;24.07;;;11.70;1.00;11.90;100214.00;;;;5009018;28;20450;-78
2022/03/29 03:15:25;;;;;;;34.90;26.93;;;11.70;1.00;11.90;100207.00;;;;5021417;28;20497;-79
2022/03/29 03:17:55;;;;;;;33.10;25.20;;;11.60;1.00;11.80;100205.00;;;;4994033;28;20474;-79
2022/03/29 03:20:26;;;;;;;36.67;27.27;;;11.50;1.00;11.70;100225.00;;;;4991820;28;20476;-79
2022/03/29 03:22:54;;;;;;;35.63;27.70;;;11.50;1.00;11.70;100195.00;;;;5001686;28;20443;-78
2022/03/29 03:25:22;;;;;;;37.10;26.13;;;11.40;1.00;11.60;100205.00;;;;4999129;28;20478;-78
2022/03/29 03:27:51;;;;;;;33.10;25.80;;;11.30;1.00;11.70;100202.00;;;;4997988;28;21427;-78
2022/03/29 03:30:22;;;;;;;35.70;26.47;;;11.30;1.00;11.60;100203.00;;;;4996331;28;20453;-80
2022/03/29 03:32:54;;;;;;;37.10;27.70;;;11.30;1.00;11.50;100199.00;;;;5000030;28;20548;-80
2022/03/29 03:35:22;;;;;;;32.33;27.80;;;11.50;1.00;11.50;100201.00;;;;4995210;28;21442;-79
2022/03/29 03:37:50;;;;;;;34.33;25.53;;;11.30;1.00;11.60;100209.00;;;;4993507;28;20486;-78
2022/03/29 03:40:18;;;;;;;37.20;27.97;;;11.30;1.00;11.50;100193.00;;;;4998680;28;20578;-79
2022/03/29 03:42:47;;;;;;;36.13;27.40;;;11.20;1.00;11.30;100191.00;;;;5014654;28;20468;-79
2022/03/29 03:45:15;;;;;;;35.50;27.83;;;11.10;1.00;11.30;100186.00;;;;5009300;28;20478;-80
2022/03/29 03:47:46;;;;;;;38.63;26.53;;;11.00;1.00;11.30;100189.00;;;;4994030;28;20466;-80
2022/03/29 03:50:16;;;;;;;36.87;25.03;;;11.00;1.00;11.30;100183.00;;;;4998187;28;20827;-80
2022/03/29 03:52:46;;;;;;;40.37;26.70;;;11.00;1.00;11.40;100178.00;;;;4997096;28;20956;-80
2022/03/29 03:55:16;;;;;;;29.87;24.23;;;11.10;1.00;11.30;100175.00;;;;4990288;28;20577;-80
2022/03/29 03:57:44;;;;;;;38.03;26.70;;;11.10;1.00;11.50;100166.00;;;;4993959;28;20536;-79
2022/03/29 04:00:14;;;;;;;35.13;27.87;;;11.20;1.00;11.50;100170.00;;;;4988271;28;20486;-79
2022/03/29 04:02:43;;;;;;;43.13;25.33;;;11.30;1.00;11.50;100167.00;;;;4988028;28;20462;-80
2022/03/29 04:05:12;;;;;;;42.63;28.43;;;11.30;1.00;11.50;100166.00;;;;5012171;28;20481;-79
2022/03/29 04:07:42;;;;;;;35.20;26.00;;;11.30;1.00;11.50;100152.00;;;;4994009;28;20595;-79
2022/03/29 04:10:11;;;;;;;35.00;26.30;;;11.30;1.00;11.50;100155.00;;;;4991298;28;20459;-79
2022/03/29 04:12:40;;;;;;;37.37;25.80;;;11.20;1.00;11.50;100157.00;;;;5018048;28;20457;-79
2022/03/29 04:15:09;;;;;;;34.67;24.60;;;11.20;1.00;11.40;100153.00;;;;5006448;28;20482;-79
2022/03/29 04:17:38;;;;;;;35.03;24.70;;;11.20;1.00;11.50;100156.00;;;;4991698;28;20581;-79
2022/03/29 04:20:08;;;;;;;33.90;23.73;;;11.20;1.00;11.50;100154.00;;;;4993839;28;20458;-80
2022/03/29 04:22:36;;;;;;;36.03;24.63;;;11.20;1.00;11.60;100155.00;;;;4994542;28;20469;-79
2022/03/29 04:25:08;;;;;;;37.00;25.47;;;11.30;1.00;11.60;100152.00;;;;4992911;28;20485;-79
2022/03/29 04:27:36;;;;;;;29.80;24.40;;;11.30;1.00;11.60;100159.00;;;;4992040;28;20452;-80
2022/03/29 04:30:06;;;;;;;33.70;25.33;;;11.40;1.00;11.60;100143.00;;;;4997229;28;20537;-80
2022/03/29 04:32:38;;;;;;;34.53;25.80;;;11.40;1.00;11.50;100143.00;;;;5001854;28;20468;-79
2022/03/29 04:35:08;;;;;;;34.07;27.23;;;11.40;1.00;11.50;100145.00;;;;4999722;28;20478;-80
2022/03/29 04:37:36;;;;;;;34.33;26.27;;;11.30;1.00;11.50;100142.00;;;;4997806;28;20906;-80
2022/03/29 04:40:09;;;;;;;36.23;25.30;;;11.30;1.00;11.40;100143.00;;;;4984877;28;20466;-79
2022/03/29 04:42:44;;;;;;;39.80;26.37;;;11.30;1.00;11.50;100128.00;;;;5002577;28;20485;-81
2022/03/29 04:45:13;;;;;;;36.00;25.97;;;11.20;1.00;11.50;100130.00;;;;5005032;28;20525;-82
2022/03/29 04:47:41;;;;;;;42.33;27.40;;;11.40;1.00;11.40;100131.00;;;;5018030;28;20465;-81
2022/03/29 04:50:12;;;;;;;32.90;23.40;;;11.20;1.00;11.30;100131.00;;;;5017658;28;20470;-83
2022/03/29 04:52:44;;;;;;;33.60;24.17;;;11.10;1.00;11.30;100130.00;;;;5011802;28;20474;-81
2022/03/29 04:55:14;;;;;;;37.60;25.03;;;11.10;1.00;11.30;100114.00;;;;5002863;28;20832;-80
2022/03/29 04:57:43;;;;;;;39.70;24.20;;;11.00;1.00;11.30;100118.00;;;;4993185;28;21038;-80
2022/03/29 05:00:13;;;;;;;28.77;21.93;;;11.00;1.00;11.20;100122.00;;;;4999671;28;20449;-78
2022/03/29 05:02:43;;;;;;;32.27;23.67;;;11.10;1.00;11.30;100134.00;;;;5004619;28;20443;-78
2022/03/29 05:05:12;;;;;;;32.20;24.67;;;11.10;1.00;11.20;100125.00;;;;5001496;28;20478;-78
2022/03/29 05:07:41;;;;;;;34.63;24.03;;;11.10;1.00;11.20;100125.00;;;;5001410;28;20477;-79
2022/03/29 05:10:11;;;;;;;33.73;23.63;;;11.00;1.00;11.20;100121.00;;;;4996874;28;20459;-80
2022/03/29 05:12:42;;;;;;;30.23;21.63;;;10.90;1.00;11.10;100117.00;;;;5002996;28;20997;-82
2022/03/29 05:15:12;;;;;;;30.60;21.47;;;10.90;1.00;11.00;100116.00;;;;5009490;28;20482;-80
2022/03/29 05:17:42;;;;;;;32.60;24.67;;;10.80;1.00;11.00;100119.00;;;;5006280;28;20457;-80
2022/03/29 05:20:12;;;;;;;35.03;24.50;;;10.80;1.00;11.10;100127.00;;;;5006888;28;20453;-80
2022/03/29 05:22:46;;;;;;;29.90;23.00;;;10.80;1.00;11.00;100123.00;;;;5006271;28;20512;-81
2022/03/29 05:25:17;;;;;;;30.10;24.40;;;10.80;1.00;11.10;100115.00;;;;5006867;28;20480;-81
2022/03/29 05:27:47;;;;;;;30.37;22.37;;;10.80;1.00;11.10;100115.00;;;;5003737;28;20530;-81
2022/03/29 05:30:17;;;;;;;33.87;24.13;;;10.80;1.00;11.00;100121.00;;;;5004927;28;20454;-80
2022/03/29 05:32:45;;;;;;;30.87;24.13;;;10.80;1.00;11.00;100110.00;;;;4997496;28;20447;-79
2022/03/29 05:35:14;;;;;;;29.57;22.77;;;10.80;1.00;11.00;100103.00;;;;4996385;28;20472;-79
2022/03/29 05:37:43;;;;;;;33.60;24.23;;;10.80;1.00;11.10;100096.00;;;;4998353;28;20469;-80
2022/03/29 05:40:12;;;;;;;33.33;23.50;;;10.90;1.00;11.10;100120.00;;;;4995910;28;20520;-79
2022/03/29 05:42:43;;;;;;;27.90;22.83;;;10.90;1.00;11.00;100117.00;;;;4995205;28;20465;-80
2022/03/29 05:45:14;;;;;;;29.27;23.07;;;10.80;1.00;11.20;100122.00;;;;4996362;28;20497;-79
2022/03/29 05:50:29;;;;;;;35.37;23.67;;;11.10;1.00;11.30;100117.00;;;;4994047;28;20455;-80
2022/03/29 05:52:58;;;;;;;35.07;23.77;;;11.10;1.00;11.50;100130.00;;;;4993710;28;20462;-79
2022/03/29 05:55:26;;;;;;;32.33;22.70;;;11.20;1.00;11.50;100119.00;;;;4995788;28;20477;-80
2022/03/29 05:57:55;;;;;;;33.40;23.33;;;11.30;1.00;11.50;100122.00;;;;5010869;28;20480;-79
2022/03/29 06:00:26;;;;;;;33.47;24.13;;;11.40;1.00;11.60;100133.00;;;;5018327;28;20462;-82
2022/03/29 06:02:54;;;;;;;33.63;24.30;;;11.40;1.00;11.50;100134.00;;;;5020774;28;20506;-79
2022/03/29 06:05:23;;;;;;;31.63;24.07;;;11.30;1.00;11.60;100130.00;;;;5007130;28;20505;-80
2022/03/29 06:07:51;;;;;;;33.00;24.23;;;11.40;1.00;11.60;100127.00;;;;4999993;28;20563;-80
2022/03/29 06:10:20;;;;;;;37.13;25.80;;;11.40;1.00;11.60;100137.00;;;;5011942;28;20462;-82
2022/03/29 06:12:48;;;;;;;36.23;24.60;;;11.40;1.00;11.70;100128.00;;;;5025443;28;20552;-79
2022/03/29 06:15:17;;;;;;;35.27;25.90;;;11.50;1.00;11.70;100148.00;;;;4999778;28;20493;-79
2022/03/29 06:17:46;;;;;;;35.70;26.57;;;11.50;1.00;11.80;100136.00;;;;4980889;28;20462;-79
2022/03/29 06:20:14;;;;;;;32.00;25.37;;;11.50;1.00;11.80;100138.00;;;;4998386;28;20477;-79
2022/03/29 06:22:44;;;;;;;35.13;25.27;;;11.60;1.00;11.90;100138.00;;;;4995892;28;20446;-80
2022/03/29 06:25:14;;;;;;;40.47;26.83;;;11.70;1.00;12.00;100129.00;;;;4994899;28;20880;-80
2022/03/29 06:27:42;;;;;;;36.53;27.07;;;11.70;1.00;12.10;100133.00;;;;4993397;28;20465;-80
2022/03/29 06:30:12;;;;;;;39.70;25.80;;;11.80;1.00;12.20;100144.00;;;;4993782;28;20493;-83
2022/03/29 06:32:48;;;;;;;37.23;25.60;;;12.00;1.00;12.30;100141.00;;;;4990394;28;20996;-82
2022/03/29 06:35:21;;;;;;;35.20;25.17;;;12.10;1.00;12.30;100141.00;;;;4993777;28;20476;-79
2022/03/29 06:37:50;;;;;;;38.80;26.07;;;12.10;1.00;12.40;100135.00;;;;4994185;28;20466;-79
2022/03/29 06:40:20;;;;;;;38.73;26.30;;;12.20;1.00;12.50;100141.00;;;;4996797;28;20496;-80
2022/03/29 06:42:49;;;;;;;35.47;24.27;;;12.30;1.00;12.50;100144.00;;;;5004339;28;20672;-81
2022/03/29 06:45:17;;;;;;;34.03;23.83;;;12.50;1.00;12.60;100148.00;;;;5011350;28;20530;-80
2022/03/29 06:47:48;;;;;;;36.50;24.70;;;12.40;1.00;12.70;100141.00;;;;5015160;28;20453;-81
2022/03/29 06:50:16;;;;;;;33.30;24.53;;;12.50;1.00;12.90;100140.00;;;;5021852;28;20446;-81
2022/03/29 06:52:48;;;;;;;32.30;23.60;;;12.70;1.00;12.90;100148.00;;;;5020125;28;20435;-79
2022/03/29 06:55:18;;;;;;;38.57;24.77;;;12.70;1.00;13.00;100136.00;;;;5012674;28;20684;-77
2022/03/29 06:57:47;;;;;;;33.40;24.40;;;12.90;1.00;13.00;100146.00;;;;5024838;28;20729;-76
2022/03/29 07:00:17;;;;;;;32.97;23.83;;;12.90;1.00;13.10;100124.00;;;;5017398;28;20542;-77
2022/03/29 07:02:48;;;;;;;31.37;23.97;;;13.00;1.00;13.10;100138.00;;;;5013890;28;20504;-79
2022/03/29 07:05:16;;;;;;;27.97;22.40;;;13.00;1.00;13.20;100135.00;;;;5012098;28;20485;-79
2022/03/29 07:07:45;;;;;;;30.53;23.53;;;13.00;1.00;13.20;100127.00;;;;5016129;28;20448;-79
2022/03/29 07:13:03;;;;;;;32.97;22.70;;;13.10;1.00;13.40;100137.00;;;;5010855;28;20463;-77
2022/03/29 07:15:32;;;;;;;30.23;22.67;;;13.20;1.00;13.50;100140.00;;;;5012473;28;20592;-80
2022/03/29 07:18:02;;;;;;;34.27;23.00;;;13.30;1.00;13.40;100133.00;;;;5001290;28;20462;-77
2022/03/29 07:20:31;;;;;;;31.13;23.17;;;13.30;1.00;13.50;100123.00;;;;5005716;28;20477;-79
2022/03/29 07:22:59;;;;;;;30.77;21.97;;;13.30;1.00;13.50;100133.00;;;;4998895;28;20450;-79
2022/03/29 07:25:32;;;;;;;31.00;20.40;;;13.40;1.00;13.60;100129.00;;;;5002605;28;20473;-78
2022/03/29 07:28:03;;;;;;;27.70;20.53;;;13.50;1.00;13.50;100142.00;;;;5002972;28;20807;-80
2022/03/29 07:30:34;;;;;;;28.70;21.70;;;13.40;1.00;13.50;100134.00;;;;4998108;28;20503;-79
2022/03/29 07:33:06;;;;;;;27.10;20.83;;;13.30;1.00;13.50;100132.00;;;;4980895;28;20451;-77
2022/03/29 07:35:37;;;;;;;28.57;19.70;;;13.30;1.00;13.50;100127.00;;;;5003663;28;20485;-78
2022/03/29 07:38:09;;;;;;;26.27;20.10;;;13.30;1.00;13.60;100136.00;;;;5006792;28;20493;-79
2022/03/29 07:40:39;;;;;;;23.23;19.67;;;13.30;1.00;13.60;100142.00;;;;5013461;28;20485;-78
2022/03/29 07:43:10;;;;;;;23.43;17.10;;;13.30;1.00;13.70;100133.00;;;;5004652;28;20971;-79
2022/03/29 07:45:39;;;;;;;27.43;19.90;;;13.40;1.00;13.70;100128.00;;;;5000625;28;20612;-79
2022/03/29 07:48:10;;;;;;;31.10;19.30;;;13.40;1.00;13.70;100134.00;;;;4999534;28;20529;-80
2022/03/29 07:50:58;;;;;;;32.40;19.90;;;13.40;1.00;13.70;100120.00;;;;5000635;28;20455;-79
2022/03/29 07:53:27;;;;;;;26.83;20.87;;;13.50;1.00;13.80;100142.00;;;;5000332;28;20456;-80
2022/03/29 07:55:56;;;;;;;26.20;20.33;;;13.70;1.00;13.90;100151.00;;;;5000521;28;20477;-78
2022/03/29 07:58:24;;;;;;;29.23;20.10;;;13.90;1.00;13.90;100140.00;;;;5004022;28;20856;-77
2022/03/29 08:00:53;;;;;;;25.07;19.67;;;13.80;1.00;14.10;100141.00;;;;5004093;28;20497;-80
2022/03/29 08:03:23;;;;;;;25.93;19.83;;;13.90;1.00;14.20;100147.00;;;;5014610;28;20468;-78
2022/03/29 08:05:52;;;;;;;32.23;20.70;;;14.20;1.00;14.40;100136.00;;;;4997373;28;20477;-79
2022/03/29 08:08:20;;;;;;;26.93;20.93;;;14.20;1.00;14.60;100140.00;;;;4993683;28;20622;-79
2022/03/29 08:10:49;;;;;;;24.60;19.13;;;14.40;1.00;14.60;100141.00;;;;4997253;28;20482;-79
2022/03/29 08:13:20;;;;;;;23.03;19.40;;;14.40;1.00;14.60;100131.00;;;;4999938;28;20552;-78
2022/03/29 08:15:52;;;;;;;24.40;19.40;;;14.40;1.00;14.60;100136.00;;;;5000469;28;20570;-79
2022/03/29 08:18:22;;;;;;;22.63;18.47;;;14.40;1.00;14.70;100140.00;;;;4997535;28;20454;-80
2022/03/29 08:20:51;;;;;;;24.13;18.53;;;14.50;1.00;14.60;100136.00;;;;4998256;28;20473;-78
2022/03/29 08:23:20;;;;;;;23.93;18.90;;;14.50;1.00;14.60;100155.00;;;;5000867;28;20485;-79
2022/03/29 08:25:48;;;;;;;24.20;20.17;;;14.50;1.00;14.60;100147.00;;;;5000381;28;20489;-81
2022/03/29 08:28:19;;;;;;;26.20;21.20;;;14.40;1.00;14.70;100139.00;;;;5016814;28;20454;-79
2022/03/29 08:30:47;;;;;;;27.23;20.10;;;14.50;1.00;14.80;100135.00;;;;4996082;28;20465;-77
2022/03/29 08:33:16;;;;;;;22.90;19.67;;;14.70;1.00;14.80;100148.00;;;;5005232;28;20453;-78
2022/03/29 08:35:46;;;;;;;31.63;21.33;;;14.70;1.00;15.00;100137.00;;;;5021752;28;20485;-80
2022/03/29 08:38:14;;;;;;;24.80;18.63;;;14.90;1.00;15.10;100136.00;;;;5003397;28;21626;-79
2022/03/29 08:41:00;;;;;;;23.47;18.73;;;14.90;1.00;15.20;100130.00;;;;5003132;28;20561;-82
2022/03/29 08:43:30;;;;;;;28.60;19.57;;;15.00;1.00;15.30;100134.00;;;;5002201;28;22220;-81
2022/03/29 08:46:00;;;;;;;20.97;18.70;;;15.10;1.00;15.30;100124.00;;;;4997572;28;20481;-80
2022/03/29 08:48:31;;;;;;;23.37;17.70;;;15.10;1.00;15.50;100132.00;;;;4997369;28;20519;-80
2022/03/29 08:51:04;;;;;;;22.57;17.57;;;15.30;1.00;15.50;100141.00;;;;4987886;28;20472;-79
2022/03/29 08:53:52;;;;;;;23.00;20.40;;;15.40;1.00;15.50;100114.00;;;;4978367;28;20466;-79
2022/03/29 08:56:21;;;;;;;24.93;21.60;;;15.40;1.00;15.60;100125.00;;;;4979902;28;20466;-79
2022/03/29 08:58:50;;;;;;;28.03;23.60;;;15.50;1.00;15.80;100119.00;;;;4988667;28;20473;-79
2022/03/29 09:01:20;;;;;;;24.80;20.33;;;15.70;1.00;15.90;100123.00;;;;4986348;28;20475;-80
2022/03/29 09:04:05;;;;;;;29.70;26.57;;;16.00;1.00;16.10;100119.00;;;;4976267;28;20516;-78
2022/03/29 09:06:57;;;;;;;23.63;21.07;;;16.10;1.00;16.10;100115.00;;;;4985899;28;20464;-78
2022/03/29 09:09:28;;;;;;;23.93;20.13;;;16.00;1.00;16.20;100115.00;;;;4991950;28;20512;-78
2022/03/29 09:11:59;;;;;;;23.33;20.80;;;16.20;1.00;16.50;100124.00;;;;4990703;28;20527;-79
2022/03/29 09:14:29;;;;;;;23.73;21.03;;;16.40;1.00;16.70;100121.00;;;;4989031;28;20501;-78
2022/03/29 09:16:58;;;;;;;23.90;21.40;;;16.60;1.00;16.90;100130.00;;;;4991653;28;20603;-78
2022/03/29 09:19:26;;;;;;;23.00;20.10;;;16.80;1.00;17.00;100117.00;;;;4988913;28;20524;-78
2022/03/29 09:21:59;;;;;;;25.07;19.70;;;16.90;1.00;17.10;100118.00;;;;4994898;28;20494;-78
2022/03/29 09:24:28;;;;;;;24.60;20.10;;;17.00;1.00;17.30;100125.00;;;;4995370;28;20480;-78
2022/03/29 09:26:57;;;;;;;23.10;20.60;;;17.20;1.00;17.30;100125.00;;;;5006930;28;20908;-78
2022/03/29 09:29:26;;;;;;;27.03;22.67;;;17.30;1.00;17.30;100124.00;;;;5008281;28;20485;-78
2022/03/29 09:32:06;;;;;;;26.27;23.57;;;17.30;1.00;17.40;100120.00;;;;4991760;28;20454;-80
2022/03/29 09:34:35;;;;;;;25.57;21.50;;;17.40;1.00;17.60;100119.00;;;;4995584;28;20482;-79
2022/03/29 09:37:06;;;;;;;24.60;21.03;;;17.60;1.00;17.60;100108.00;;;;4992967;28;20465;-78
2022/03/29 09:39:38;;;;;;;24.03;21.43;;;17.60;1.00;17.70;100105.00;;;;4990655;28;20958;-78
2022/03/29 09:42:10;;;;;;;23.40;20.90;;;17.70;1.00;17.50;100105.00;;;;4976218;28;20486;-78
2022/03/29 09:44:45;;;;;;;24.10;21.50;;;17.60;1.00;17.60;100099.00;;;;4989999;28;20481;-81
2022/03/29 09:47:20;;;;;;;22.00;19.80;;;17.60;1.00;17.90;100101.00;;;;4993680;28;21069;-79
2022/03/29 09:49:55;;;;;;;22.37;19.93;;;17.80;1.00;18.10;100108.00;;;;4991650;28;20464;-79
2022/03/29 09:52:26;;;;;;;24.30;19.47;;;18.00;1.00;18.20;100096.00;;;;4991035;28;20476;-81
2022/03/29 09:55:15;;;;;;;27.50;20.20;;;18.10;1.00;18.30;100091.00;;;;4991848;28;20498;-77
2022/03/29 09:57:49;;;;;;;22.43;18.60;;;18.30;1.00;18.50;100090.00;;;;4991105;28;20554;-79
2022/03/29 10:00:35;;;;;;;20.63;18.50;;;18.40;1.00;18.60;100078.00;;;;4994189;28;20832;-78
2022/03/29 10:03:08;;;;;;;21.33;19.13;;;18.70;1.00;18.70;100079.00;;;;4991311;28;20991;-79
2022/03/29 10:05:42;;;;;;;20.57;17.60;;;18.60;1.00;18.80;100073.00;;;;4997401;28;20478;-79
2022/03/29 10:11:05;;;;;;;17.80;15.90;;;18.80;1.00;18.80;100063.00;;;;5000929;28;20450;-77
2022/03/29 10:13:36;;;;;;;24.70;19.07;;;18.80;1.00;19.00;100059.00;;;;5003170;28;20441;-79
2022/03/29 10:16:06;;;;;;;23.17;17.77;;;19.00;1.00;19.10;100064.00;;;;5004199;28;20470;-78
2022/03/29 10:18:35;;;;;;;19.23;16.77;;;19.00;1.00;19.10;100050.00;;;;5008711;28;20457;-79
2022/03/29 10:21:05;;;;;;;21.33;19.13;;;19.10;1.00;19.00;100046.00;;;;5008556;28;20478;-80
2022/03/29 10:23:39;;;;;;;20.13;17.97;;;19.00;1.00;19.00;100042.00;;;;5003374;28;20481;-80
2022/03/29 10:26:09;;;;;;;20.10;17.90;;;18.90;1.00;19.10;100035.00;;;;5010995;28;20549;-81
2022/03/29 10:28:38;;;;;;;19.33;17.33;;;19.00;1.00;19.20;100041.00;;;;4987213;28;20442;-82
2022/03/29 10:31:28;;;;;;;19.50;16.97;;;19.20;1.00;19.30;100022.00;;;;5002855;28;20462;-81
2022/03/29 10:34:20;;;;;;;18.80;16.80;;;19.20;1.00;19.40;100026.00;;;;4993629;28;20490;-77
2022/03/29 10:37:14;;;;;;;18.30;15.77;;;19.40;1.00;19.50;100024.00;;;;4989126;28;20462;-78
2022/03/29 10:39:56;;;;;;;18.43;16.40;;;19.50;1.00;19.40;100019.00;;;;4989252;28;20461;-77
2022/03/29 10:42:38;;;;;;;18.70;16.70;;;19.40;1.00;19.40;100016.00;;;;4993252;28;20478;-79
2022/03/29 10:45:19;;;;;;;20.43;17.30;;;19.40;1.00;19.30;100016.00;;;;4993937;28;20508;-78
2022/03/29 10:48:09;;;;;;;19.20;15.83;;;19.30;1.00;19.30;100005.00;;;;4990228;28;20913;-78
2022/03/29 10:50:59;;;;;;;20.40;16.70;;;19.30;1.00;19.40;100027.00;;;;4991734;28;20463;-77
2022/03/29 10:53:35;;;;;;;21.43;16.53;;;19.30;1.00;19.50;100017.00;;;;4993350;28;20465;-79
2022/03/29 10:56:23;;;;;;;18.87;16.90;;;19.40;1.00;19.50;100016.00;;;;4988104;28;20478;-78
2022/03/29 10:59:11;;;;;;;18.20;15.00;;;19.50;1.00;19.40;100018.00;;;;5000467;28;20489;-80
2022/03/29 11:01:42;;;;;;;18.47;15.10;;;19.40;1.00;19.40;100000.00;;;;5007228;28;20470;-79
2022/03/29 11:04:19;;;;;;;18.77;16.17;;;19.40;1.00;19.30;100000.00;;;;5012561;28;20449;-79